sensor_id;sensor_type;location;lat;lon;timestamp;P1;durP1;ratioP1;P2;durP2;ratioP2
7729;SDS011;3908;52.310;7.230;2023-12-20T00:00:46;19.17;;;17.53;;
7729;SDS011;3908;52.310;7.230;2023-12-20T00:03:33;19.20;;;17.93;;
7729;SDS011;3908;52.310;7.230;2023-12-20T00:06:21;16.93;;;15.87;;
7729;SDS011;3908;52.310;7.230;2023-12-20T00:09:08;16.80;;;15.67;;
7729;SDS011;3908;52.310;7.230;2023-12-20T00:11:54;16.83;;;15.40;;
7729;SDS011;3908;52.310;7.230;2023-12-20T00:14:41;19.47;;;18.43;;
7729;SDS011;3908;52.310;7.230;2023-12-20T00:17:28;17.60;;;15.70;;
7729;SDS011;3908;52.310;7.230;2023-12-20T00:20:15;20.03;;;18.60;;
7729;SDS011;3908;52.310;7.230;2023-12-20T00:23:03;18.87;;;17.53;;
7729;SDS011;3908;52.310;7.230;2023-12-20T00:25:50;20.37;;;18.87;;
7729;SDS011;3908;52.310;7.230;2023-12-20T00:28:37;17.57;;;16.57;;
7729;SDS011;3908;52.310;7.230;2023-12-20T00:31:24;18.57;;;16.60;;
7729;SDS011;3908;52.310;7.230;2023-12-20T00:34:11;20.30;;;18.67;;
7729;SDS011;3908;52.310;7.230;2023-12-20T00:36:57;20.37;;;18.87;;
7729;SDS011;3908;52.310;7.230;2023-12-20T00:39:45;20.70;;;19.27;;
7729;SDS011;3908;52.310;7.230;2023-12-20T00:42:32;21.20;;;19.50;;
7729;SDS011;3908;52.310;7.230;2023-12-20T00:45:19;23.20;;;21.10;;
7729;SDS011;3908;52.310;7.230;2023-12-20T00:48:06;22.67;;;21.17;;
7729;SDS011;3908;52.310;7.230;2023-12-20T00:50:53;22.35;;;20.50;;
7729;SDS011;3908;52.310;7.230;2023-12-20T00:53:40;23.43;;;22.10;;
7729;SDS011;3908;52.310;7.230;2023-12-20T00:56:28;23.43;;;22.03;;
7729;SDS011;3908;52.310;7.230;2023-12-20T00:59:16;23.43;;;21.53;;
7729;SDS011;3908;52.310;7.230;2023-12-20T01:02:03;23.97;;;22.23;;
7729;SDS011;3908;52.310;7.230;2023-12-20T01:04:50;23.70;;;22.23;;
7729;SDS011;3908;52.310;7.230;2023-12-20T01:07:36;23.50;;;21.97;;
7729;SDS011;3908;52.310;7.230;2023-12-20T01:10:23;23.80;;;22.17;;
7729;SDS011;3908;52.310;7.230;2023-12-20T01:13:15;24.40;;;22.37;;
7729;SDS011;3908;52.310;7.230;2023-12-20T01:16:01;22.60;;;20.50;;
7729;SDS011;3908;52.310;7.230;2023-12-20T01:18:48;18.27;;;17.03;;
7729;SDS011;3908;52.310;7.230;2023-12-20T01:21:35;19.23;;;18.03;;
7729;SDS011;3908;52.310;7.230;2023-12-20T01:24:22;21.40;;;19.83;;
7729;SDS011;3908;52.310;7.230;2023-12-20T01:27:09;29.73;;;24.50;;
7729;SDS011;3908;52.310;7.230;2023-12-20T01:29:57;22.90;;;20.10;;
7729;SDS011;3908;52.310;7.230;2023-12-20T01:32:44;22.47;;;20.87;;
7729;SDS011;3908;52.310;7.230;2023-12-20T01:35:31;25.00;;;22.87;;
7729;SDS011;3908;52.310;7.230;2023-12-20T01:38:18;21.40;;;20.03;;
7729;SDS011;3908;52.310;7.230;2023-12-20T01:41:05;21.03;;;19.87;;
7729;SDS011;3908;52.310;7.230;2023-12-20T01:43:52;19.97;;;18.47;;
7729;SDS011;3908;52.310;7.230;2023-12-20T01:46:41;20.93;;;18.67;;
7729;SDS011;3908;52.310;7.230;2023-12-20T01:49:27;23.07;;;21.40;;
7729;SDS011;3908;52.310;7.230;2023-12-20T01:52:14;20.33;;;18.50;;
7729;SDS011;3908;52.310;7.230;2023-12-20T01:55:01;19.50;;;17.60;;
7729;SDS011;3908;52.310;7.230;2023-12-20T01:57:49;23.03;;;20.77;;
7729;SDS011;3908;52.310;7.230;2023-12-20T02:00:36;20.33;;;18.87;;
7729;SDS011;3908;52.310;7.230;2023-12-20T02:08:26;23.87;;;21.83;;
7729;SDS011;3908;52.310;7.230;2023-12-20T02:11:13;36.97;;;28.63;;
7729;SDS011;3908;52.310;7.230;2023-12-20T02:14:00;28.47;;;25.57;;
7729;SDS011;3908;52.310;7.230;2023-12-20T02:16:47;25.43;;;23.60;;
7729;SDS011;3908;52.310;7.230;2023-12-20T02:19:34;29.03;;;26.37;;
7729;SDS011;3908;52.310;7.230;2023-12-20T02:22:24;26.00;;;23.50;;
7729;SDS011;3908;52.310;7.230;2023-12-20T02:25:11;24.43;;;22.50;;
7729;SDS011;3908;52.310;7.230;2023-12-20T02:27:58;26.50;;;24.40;;
7729;SDS011;3908;52.310;7.230;2023-12-20T02:30:45;26.83;;;24.53;;
7729;SDS011;3908;52.310;7.230;2023-12-20T02:33:31;21.10;;;19.03;;
7729;SDS011;3908;52.310;7.230;2023-12-20T02:36:18;18.23;;;16.37;;
7729;SDS011;3908;52.310;7.230;2023-12-20T02:39:07;19.10;;;17.30;;
7729;SDS011;3908;52.310;7.230;2023-12-20T02:41:53;18.03;;;16.37;;
7729;SDS011;3908;52.310;7.230;2023-12-20T02:44:40;22.30;;;17.07;;
7729;SDS011;3908;52.310;7.230;2023-12-20T02:47:27;19.07;;;17.00;;
7729;SDS011;3908;52.310;7.230;2023-12-20T02:50:15;16.87;;;15.33;;
7729;SDS011;3908;52.310;7.230;2023-12-20T02:53:02;20.77;;;19.37;;
7729;SDS011;3908;52.310;7.230;2023-12-20T02:55:50;19.73;;;18.30;;
7729;SDS011;3908;52.310;7.230;2023-12-20T02:58:36;29.77;;;25.73;;
7729;SDS011;3908;52.310;7.230;2023-12-20T03:01:23;23.63;;;21.33;;
7729;SDS011;3908;52.310;7.230;2023-12-20T03:04:10;21.43;;;19.37;;
7729;SDS011;3908;52.310;7.230;2023-12-20T03:06:57;21.53;;;19.87;;
7729;SDS011;3908;52.310;7.230;2023-12-20T03:09:44;19.97;;;18.27;;
7729;SDS011;3908;52.310;7.230;2023-12-20T03:12:32;15.23;;;13.77;;
7729;SDS011;3908;52.310;7.230;2023-12-20T03:15:19;16.73;;;15.13;;
7729;SDS011;3908;52.310;7.230;2023-12-20T03:18:06;21.77;;;15.73;;
7729;SDS011;3908;52.310;7.230;2023-12-20T03:20:53;15.93;;;14.70;;
7729;SDS011;3908;52.310;7.230;2023-12-20T03:23:39;14.23;;;13.03;;
7729;SDS011;3908;52.310;7.230;2023-12-20T03:26:26;18.83;;;14.07;;
7729;SDS011;3908;52.310;7.230;2023-12-20T03:29:15;13.20;;;12.07;;
7729;SDS011;3908;52.310;7.230;2023-12-20T03:32:01;13.23;;;11.93;;
7729;SDS011;3908;52.310;7.230;2023-12-20T03:34:48;14.90;;;13.37;;
7729;SDS011;3908;52.310;7.230;2023-12-20T03:37:35;14.27;;;12.93;;
7729;SDS011;3908;52.310;7.230;2023-12-20T03:40:22;19.67;;;14.87;;
7729;SDS011;3908;52.310;7.230;2023-12-20T03:43:09;16.50;;;14.53;;
7729;SDS011;3908;52.310;7.230;2023-12-20T03:45:57;17.73;;;14.30;;
7729;SDS011;3908;52.310;7.230;2023-12-20T03:48:44;15.97;;;13.53;;
7729;SDS011;3908;52.310;7.230;2023-12-20T03:51:31;14.00;;;12.53;;
7729;SDS011;3908;52.310;7.230;2023-12-20T03:54:17;16.37;;;12.07;;
7729;SDS011;3908;52.310;7.230;2023-12-20T03:57:04;14.87;;;12.13;;
7729;SDS011;3908;52.310;7.230;2023-12-20T03:59:51;12.43;;;11.07;;
7729;SDS011;3908;52.310;7.230;2023-12-20T04:02:39;12.43;;;10.83;;
7729;SDS011;3908;52.310;7.230;2023-12-20T04:05:26;15.97;;;10.60;;
7729;SDS011;3908;52.310;7.230;2023-12-20T04:08:13;11.63;;;10.70;;
7729;SDS011;3908;52.310;7.230;2023-12-20T04:11:00;16.40;;;9.87;;
7729;SDS011;3908;52.310;7.230;2023-12-20T04:13:47;9.93;;;9.00;;
7729;SDS011;3908;52.310;7.230;2023-12-20T04:19:22;14.93;;;9.13;;
7729;SDS011;3908;52.310;7.230;2023-12-20T04:22:09;13.03;;;9.93;;
7729;SDS011;3908;52.310;7.230;2023-12-20T04:24:56;20.30;;;8.83;;
7729;SDS011;3908;52.310;7.230;2023-12-20T04:27:43;9.57;;;7.53;;
7729;SDS011;3908;52.310;7.230;2023-12-20T04:30:29;16.67;;;10.63;;
7729;SDS011;3908;52.310;7.230;2023-12-20T04:33:16;17.50;;;9.37;;
7729;SDS011;3908;52.310;7.230;2023-12-20T04:36:05;17.20;;;10.23;;
7729;SDS011;3908;52.310;7.230;2023-12-20T04:38:51;19.80;;;11.77;;
7729;SDS011;3908;52.310;7.230;2023-12-20T04:41:38;10.70;;;8.33;;
7729;SDS011;3908;52.310;7.230;2023-12-20T04:44:25;15.07;;;8.53;;
7729;SDS011;3908;52.310;7.230;2023-12-20T04:47:12;14.37;;;8.20;;
7729;SDS011;3908;52.310;7.230;2023-12-20T04:49:59;21.67;;;8.83;;
7729;SDS011;3908;52.310;7.230;2023-12-20T04:52:47;15.63;;;8.50;;
7729;SDS011;3908;52.310;7.230;2023-12-20T04:55:34;14.20;;;8.40;;
7729;SDS011;3908;52.310;7.230;2023-12-20T04:58:21;11.97;;;8.43;;
7729;SDS011;3908;52.310;7.230;2023-12-20T05:01:07;16.77;;;8.53;;
7729;SDS011;3908;52.310;7.230;2023-12-20T05:03:55;10.73;;;7.73;;
7729;SDS011;3908;52.310;7.230;2023-12-20T05:06:41;11.07;;;7.90;;
7729;SDS011;3908;52.310;7.230;2023-12-20T05:09:30;15.13;;;8.67;;
7729;SDS011;3908;52.310;7.230;2023-12-20T05:12:16;14.27;;;8.07;;
7729;SDS011;3908;52.310;7.230;2023-12-20T05:15:04;17.37;;;7.97;;
7729;SDS011;3908;52.310;7.230;2023-12-20T05:17:51;14.27;;;9.07;;
7729;SDS011;3908;52.310;7.230;2023-12-20T05:20:38;17.87;;;9.43;;
7729;SDS011;3908;52.310;7.230;2023-12-20T05:23:25;21.93;;;9.00;;
7729;SDS011;3908;52.310;7.230;2023-12-20T05:26:13;11.60;;;8.13;;
7729;SDS011;3908;52.310;7.230;2023-12-20T05:29:00;13.93;;;7.87;;
7729;SDS011;3908;52.310;7.230;2023-12-20T05:31:47;14.00;;;8.00;;
7729;SDS011;3908;52.310;7.230;2023-12-20T05:34:33;11.93;;;8.50;;
7729;SDS011;3908;52.310;7.230;2023-12-20T05:37:20;16.67;;;7.67;;
7729;SDS011;3908;52.310;7.230;2023-12-20T05:40:07;14.33;;;9.33;;
7729;SDS011;3908;52.310;7.230;2023-12-20T05:42:56;16.00;;;7.30;;
7729;SDS011;3908;52.310;7.230;2023-12-20T05:45:43;15.47;;;7.73;;
7729;SDS011;3908;52.310;7.230;2023-12-20T05:48:30;10.70;;;7.23;;
7729;SDS011;3908;52.310;7.230;2023-12-20T05:51:17;18.37;;;7.90;;
7729;SDS011;3908;52.310;7.230;2023-12-20T05:54:04;13.13;;;8.03;;
7729;SDS011;3908;52.310;7.230;2023-12-20T05:56:51;16.63;;;7.30;;
7729;SDS011;3908;52.310;7.230;2023-12-20T05:59:39;21.03;;;8.07;;
7729;SDS011;3908;52.310;7.230;2023-12-20T06:02:26;18.30;;;10.13;;
7729;SDS011;3908;52.310;7.230;2023-12-20T06:05:13;17.43;;;8.77;;
7729;SDS011;3908;52.310;7.230;2023-12-20T06:08:00;17.70;;;9.67;;
7729;SDS011;3908;52.310;7.230;2023-12-20T06:10:48;16.90;;;10.30;;
7729;SDS011;3908;52.310;7.230;2023-12-20T06:13:35;15.93;;;10.77;;
7729;SDS011;3908;52.310;7.230;2023-12-20T06:16:24;11.43;;;10.10;;
7729;SDS011;3908;52.310;7.230;2023-12-20T06:19:10;17.23;;;10.23;;
7729;SDS011;3908;52.310;7.230;2023-12-20T06:21:57;16.50;;;10.03;;
7729;SDS011;3908;52.310;7.230;2023-12-20T06:24:44;19.70;;;10.67;;
7729;SDS011;3908;52.310;7.230;2023-12-20T06:27:31;16.50;;;10.63;;
7729;SDS011;3908;52.310;7.230;2023-12-20T06:30:18;14.60;;;9.50;;
7729;SDS011;3908;52.310;7.230;2023-12-20T06:33:06;17.07;;;12.23;;
7729;SDS011;3908;52.310;7.230;2023-12-20T06:35:55;13.40;;;10.03;;
7729;SDS011;3908;52.310;7.230;2023-12-20T06:38:42;14.73;;;9.40;;
7729;SDS011;3908;52.310;7.230;2023-12-20T06:41:28;16.63;;;8.53;;
7729;SDS011;3908;52.310;7.230;2023-12-20T06:44:15;16.37;;;10.60;;
7729;SDS011;3908;52.310;7.230;2023-12-20T06:47:02;32.67;;;16.70;;
7729;SDS011;3908;52.310;7.230;2023-12-20T06:49:51;20.77;;;11.87;;
7729;SDS011;3908;52.310;7.230;2023-12-20T06:52:37;13.83;;;11.80;;
7729;SDS011;3908;52.310;7.230;2023-12-20T06:55:24;20.83;;;11.40;;
7729;SDS011;3908;52.310;7.230;2023-12-20T06:58:11;22.03;;;10.87;;
7729;SDS011;3908;52.310;7.230;2023-12-20T07:00:58;16.00;;;12.03;;
7729;SDS011;3908;52.310;7.230;2023-12-20T07:03:45;15.87;;;11.23;;
7729;SDS011;3908;52.310;7.230;2023-12-20T07:06:33;14.27;;;12.83;;
7729;SDS011;3908;52.310;7.230;2023-12-20T07:09:20;13.67;;;12.57;;
7729;SDS011;3908;52.310;7.230;2023-12-20T07:12:07;18.30;;;12.43;;
7729;SDS011;3908;52.310;7.230;2023-12-20T07:14:53;12.53;;;11.23;;
7729;SDS011;3908;52.310;7.230;2023-12-20T07:17:41;24.10;;;11.70;;
7729;SDS011;3908;52.310;7.230;2023-12-20T07:20:29;12.97;;;11.53;;
7729;SDS011;3908;52.310;7.230;2023-12-20T07:23:17;19.53;;;12.43;;
7729;SDS011;3908;52.310;7.230;2023-12-20T07:26:05;15.40;;;12.27;;
7729;SDS011;3908;52.310;7.230;2023-12-20T07:28:52;13.57;;;10.67;;
7729;SDS011;3908;52.310;7.230;2023-12-20T07:31:38;17.90;;;10.37;;
7729;SDS011;3908;52.310;7.230;2023-12-20T07:34:25;19.53;;;11.73;;
7729;SDS011;3908;52.310;7.230;2023-12-20T07:37:12;25.20;;;13.07;;
7729;SDS011;3908;52.310;7.230;2023-12-20T07:40:00;17.33;;;12.80;;
7729;SDS011;3908;52.310;7.230;2023-12-20T07:42:48;13.40;;;12.13;;
7729;SDS011;3908;52.310;7.230;2023-12-20T07:45:35;12.57;;;9.07;;
7729;SDS011;3908;52.310;7.230;2023-12-20T07:48:23;19.13;;;12.07;;
7729;SDS011;3908;52.310;7.230;2023-12-20T07:51:10;15.23;;;8.87;;
7729;SDS011;3908;52.310;7.230;2023-12-20T07:53:57;13.70;;;10.00;;
7729;SDS011;3908;52.310;7.230;2023-12-20T07:56:45;19.07;;;10.33;;
7729;SDS011;3908;52.310;7.230;2023-12-20T07:59:32;19.70;;;10.10;;
7729;SDS011;3908;52.310;7.230;2023-12-20T08:02:19;15.60;;;10.97;;
7729;SDS011;3908;52.310;7.230;2023-12-20T08:05:06;17.27;;;10.60;;
7729;SDS011;3908;52.310;7.230;2023-12-20T08:07:53;13.30;;;10.93;;
7729;SDS011;3908;52.310;7.230;2023-12-20T08:10:40;12.30;;;11.17;;
7729;SDS011;3908;52.310;7.230;2023-12-20T08:13:28;13.77;;;11.47;;
7729;SDS011;3908;52.310;7.230;2023-12-20T08:16:15;18.93;;;13.30;;
7729;SDS011;3908;52.310;7.230;2023-12-20T08:19:03;18.57;;;13.27;;
7729;SDS011;3908;52.310;7.230;2023-12-20T08:21:49;16.10;;;13.13;;
7729;SDS011;3908;52.310;7.230;2023-12-20T08:24:36;15.47;;;11.07;;
7729;SDS011;3908;52.310;7.230;2023-12-20T08:27:23;14.43;;;12.73;;
7729;SDS011;3908;52.310;7.230;2023-12-20T08:30:12;19.03;;;12.90;;
7729;SDS011;3908;52.310;7.230;2023-12-20T08:32:59;24.60;;;15.90;;
7729;SDS011;3908;52.310;7.230;2023-12-20T08:35:46;17.00;;;15.50;;
7729;SDS011;3908;52.310;7.230;2023-12-20T08:38:33;16.47;;;14.33;;
7729;SDS011;3908;52.310;7.230;2023-12-20T08:41:20;19.70;;;16.87;;
7729;SDS011;3908;52.310;7.230;2023-12-20T08:44:07;20.87;;;16.07;;
7729;SDS011;3908;52.310;7.230;2023-12-20T08:46:55;19.57;;;17.90;;
7729;SDS011;3908;52.310;7.230;2023-12-20T08:49:43;17.17;;;15.73;;
7729;SDS011;3908;52.310;7.230;2023-12-20T08:52:30;18.80;;;15.93;;
7729;SDS011;3908;52.310;7.230;2023-12-20T08:55:17;19.63;;;17.87;;
7729;SDS011;3908;52.310;7.230;2023-12-20T08:58:05;25.40;;;18.27;;
7729;SDS011;3908;52.310;7.230;2023-12-20T09:00:53;34.63;;;32.10;;
7729;SDS011;3908;52.310;7.230;2023-12-20T09:03:41;21.27;;;19.43;;
7729;SDS011;3908;52.310;7.230;2023-12-20T09:06:28;24.93;;;18.73;;
7729;SDS011;3908;52.310;7.230;2023-12-20T09:09:15;20.67;;;18.67;;
7729;SDS011;3908;52.310;7.230;2023-12-20T09:12:02;21.70;;;19.40;;
7729;SDS011;3908;52.310;7.230;2023-12-20T09:14:49;17.13;;;15.20;;
7729;SDS011;3908;52.310;7.230;2023-12-20T09:17:37;20.43;;;18.53;;
7729;SDS011;3908;52.310;7.230;2023-12-20T09:20:25;24.30;;;21.90;;
7729;SDS011;3908;52.310;7.230;2023-12-20T09:23:13;16.27;;;14.67;;
7729;SDS011;3908;52.310;7.230;2023-12-20T09:25:59;20.47;;;17.43;;
7729;SDS011;3908;52.310;7.230;2023-12-20T09:28:46;21.77;;;16.60;;
7729;SDS011;3908;52.310;7.230;2023-12-20T09:31:33;19.50;;;15.97;;
7729;SDS011;3908;52.310;7.230;2023-12-20T09:34:22;19.97;;;18.00;;
7729;SDS011;3908;52.310;7.230;2023-12-20T09:37:12;26.83;;;19.57;;
7729;SDS011;3908;52.310;7.230;2023-12-20T09:39:59;19.93;;;17.93;;
7729;SDS011;3908;52.310;7.230;2023-12-20T09:42:47;19.83;;;18.10;;
7729;SDS011;3908;52.310;7.230;2023-12-20T09:45:36;18.67;;;16.80;;
7729;SDS011;3908;52.310;7.230;2023-12-20T09:48:23;18.67;;;16.83;;
7729;SDS011;3908;52.310;7.230;2023-12-20T09:51:13;26.63;;;21.87;;
7729;SDS011;3908;52.310;7.230;2023-12-20T09:54:03;17.23;;;15.50;;
7729;SDS011;3908;52.310;7.230;2023-12-20T09:56:51;19.93;;;18.00;;
7729;SDS011;3908;52.310;7.230;2023-12-20T09:59:37;21.93;;;20.37;;
7729;SDS011;3908;52.310;7.230;2023-12-20T10:02:25;15.83;;;14.27;;
7729;SDS011;3908;52.310;7.230;2023-12-20T10:05:15;15.17;;;13.20;;
7729;SDS011;3908;52.310;7.230;2023-12-20T10:08:04;20.17;;;16.33;;
7729;SDS011;3908;52.310;7.230;2023-12-20T10:10:53;22.00;;;20.00;;
7729;SDS011;3908;52.310;7.230;2023-12-20T10:13:43;18.73;;;16.87;;
7729;SDS011;3908;52.310;7.230;2023-12-20T10:16:30;19.80;;;16.43;;
7729;SDS011;3908;52.310;7.230;2023-12-20T10:19:17;26.07;;;14.20;;
7729;SDS011;3908;52.310;7.230;2023-12-20T10:22:05;21.53;;;16.37;;
7729;SDS011;3908;52.310;7.230;2023-12-20T10:24:53;15.10;;;13.73;;
7729;SDS011;3908;52.310;7.230;2023-12-20T10:27:42;16.57;;;14.67;;
7729;SDS011;3908;52.310;7.230;2023-12-20T10:30:29;21.23;;;16.40;;
7729;SDS011;3908;52.310;7.230;2023-12-20T10:33:22;21.53;;;17.47;;
7729;SDS011;3908;52.310;7.230;2023-12-20T10:36:10;21.77;;;17.63;;
7729;SDS011;3908;52.310;7.230;2023-12-20T10:38:58;23.37;;;16.40;;
7729;SDS011;3908;52.310;7.230;2023-12-20T10:49:33;26.90;;;25.10;;
7729;SDS011;3908;52.310;7.230;2023-12-20T10:52:23;22.33;;;20.53;;
7729;SDS011;3908;52.310;7.230;2023-12-20T10:55:10;18.70;;;16.87;;
7729;SDS011;3908;52.310;7.230;2023-12-20T10:57:59;19.20;;;17.40;;
7729;SDS011;3908;52.310;7.230;2023-12-20T11:00:47;19.37;;;17.67;;
7729;SDS011;3908;52.310;7.230;2023-12-20T11:03:34;20.27;;;18.77;;
7729;SDS011;3908;52.310;7.230;2023-12-20T11:06:29;24.90;;;19.73;;
7729;SDS011;3908;52.310;7.230;2023-12-20T11:09:19;22.43;;;20.47;;
7729;SDS011;3908;52.310;7.230;2023-12-20T11:12:09;20.17;;;18.27;;
7729;SDS011;3908;52.310;7.230;2023-12-20T11:14:57;19.57;;;17.90;;
7729;SDS011;3908;52.310;7.230;2023-12-20T11:17:54;22.33;;;20.03;;
7729;SDS011;3908;52.310;7.230;2023-12-20T11:20:41;19.50;;;15.90;;
7729;SDS011;3908;52.310;7.230;2023-12-20T11:23:30;21.33;;;19.33;;
7729;SDS011;3908;52.310;7.230;2023-12-20T11:26:22;23.23;;;18.27;;
7729;SDS011;3908;52.310;7.230;2023-12-20T11:32:29;18.57;;;16.73;;
7729;SDS011;3908;52.310;7.230;2023-12-20T11:35:16;31.50;;;16.97;;
7729;SDS011;3908;52.310;7.230;2023-12-20T11:38:03;22.23;;;17.10;;
7729;SDS011;3908;52.310;7.230;2023-12-20T11:40:53;19.43;;;17.43;;
7729;SDS011;3908;52.310;7.230;2023-12-20T11:43:40;40.87;;;38.23;;
7729;SDS011;3908;52.310;7.230;2023-12-20T11:46:21;25.03;;;23.60;;
7729;SDS011;3908;52.310;7.230;2023-12-20T11:49:09;25.93;;;23.63;;
7729;SDS011;3908;52.310;7.230;2023-12-20T11:51:56;22.47;;;20.93;;
7729;SDS011;3908;52.310;7.230;2023-12-20T11:54:43;22.03;;;20.57;;
7729;SDS011;3908;52.310;7.230;2023-12-20T11:57:31;24.50;;;22.93;;
7729;SDS011;3908;52.310;7.230;2023-12-20T12:00:18;27.10;;;25.33;;
7729;SDS011;3908;52.310;7.230;2023-12-20T12:03:05;25.13;;;23.83;;
7729;SDS011;3908;52.310;7.230;2023-12-20T12:08:28;22.17;;;20.50;;
7729;SDS011;3908;52.310;7.230;2023-12-20T12:11:14;21.00;;;19.43;;
7729;SDS011;3908;52.310;7.230;2023-12-20T12:14:03;24.07;;;22.53;;
7729;SDS011;3908;52.310;7.230;2023-12-20T12:19:25;27.13;;;25.80;;
7729;SDS011;3908;52.310;7.230;2023-12-20T12:22:13;26.63;;;25.23;;
7729;SDS011;3908;52.310;7.230;2023-12-20T12:25:09;26.27;;;24.97;;
7729;SDS011;3908;52.310;7.230;2023-12-20T12:27:56;25.97;;;24.43;;
7729;SDS011;3908;52.310;7.230;2023-12-20T12:30:56;29.90;;;27.97;;
7729;SDS011;3908;52.310;7.230;2023-12-20T12:33:44;32.00;;;29.97;;
7729;SDS011;3908;52.310;7.230;2023-12-20T12:36:30;29.67;;;27.63;;
7729;SDS011;3908;52.310;7.230;2023-12-20T12:39:18;35.33;;;32.57;;
7729;SDS011;3908;52.310;7.230;2023-12-20T12:42:05;32.23;;;30.37;;
7729;SDS011;3908;52.310;7.230;2023-12-20T12:44:52;34.03;;;31.87;;
7729;SDS011;3908;52.310;7.230;2023-12-20T12:55:16;22.23;;;20.87;;
7729;SDS011;3908;52.310;7.230;2023-12-20T12:58:03;21.57;;;20.07;;
7729;SDS011;3908;52.310;7.230;2023-12-20T13:17:01;23.93;;;22.50;;
7729;SDS011;3908;52.310;7.230;2023-12-20T13:19:49;25.03;;;23.43;;
7729;SDS011;3908;52.310;7.230;2023-12-20T13:25:12;21.67;;;20.33;;
7729;SDS011;3908;52.310;7.230;2023-12-20T13:27:59;21.80;;;20.07;;
7729;SDS011;3908;52.310;7.230;2023-12-20T13:30:46;21.47;;;20.23;;
7729;SDS011;3908;52.310;7.230;2023-12-20T13:33:34;26.50;;;25.10;;
7729;SDS011;3908;52.310;7.230;2023-12-20T13:36:21;24.83;;;23.23;;
7729;SDS011;3908;52.310;7.230;2023-12-20T13:39:07;25.57;;;23.90;;
7729;SDS011;3908;52.310;7.230;2023-12-20T13:52:16;19.37;;;17.97;;
7729;SDS011;3908;52.310;7.230;2023-12-20T13:55:04;16.37;;;15.10;;
7729;SDS011;3908;52.310;7.230;2023-12-20T14:10:49;17.17;;;16.03;;
7729;SDS011;3908;52.310;7.230;2023-12-20T14:13:37;19.57;;;18.47;;
7729;SDS011;3908;52.310;7.230;2023-12-20T14:16:25;19.20;;;17.90;;
7729;SDS011;3908;52.310;7.230;2023-12-20T14:24:22;21.10;;;19.33;;
7729;SDS011;3908;52.310;7.230;2023-12-20T14:27:12;20.27;;;18.70;;
7729;SDS011;3908;52.310;7.230;2023-12-20T15:06:14;30.00;;;27.90;;
7729;SDS011;3908;52.310;7.230;2023-12-20T15:11:37;28.93;;;26.87;;
7729;SDS011;3908;52.310;7.230;2023-12-20T15:14:25;31.43;;;29.13;;
7729;SDS011;3908;52.310;7.230;2023-12-20T15:17:13;36.37;;;33.17;;
7729;SDS011;3908;52.310;7.230;2023-12-20T15:22:39;33.30;;;30.87;;
7729;SDS011;3908;52.310;7.230;2023-12-20T15:30:41;31.33;;;28.90;;
7729;SDS011;3908;52.310;7.230;2023-12-20T15:33:45;26.27;;;24.30;;
7729;SDS011;3908;52.310;7.230;2023-12-20T15:36:36;24.93;;;22.70;;
7729;SDS011;3908;52.310;7.230;2023-12-20T15:39:30;22.33;;;19.97;;
7729;SDS011;3908;52.310;7.230;2023-12-20T15:42:19;21.57;;;19.03;;
7729;SDS011;3908;52.310;7.230;2023-12-20T15:45:08;23.63;;;20.43;;
7729;SDS011;3908;52.310;7.230;2023-12-20T15:47:55;19.83;;;17.90;;
7729;SDS011;3908;52.310;7.230;2023-12-20T15:50:43;21.73;;;19.20;;
7729;SDS011;3908;52.310;7.230;2023-12-20T15:53:30;21.83;;;19.97;;
7729;SDS011;3908;52.310;7.230;2023-12-20T17:12:28;12.50;;;10.53;;
7729;SDS011;3908;52.310;7.230;2023-12-20T17:15:15;14.00;;;10.60;;
7729;SDS011;3908;52.310;7.230;2023-12-20T17:18:02;15.87;;;10.17;;
7729;SDS011;3908;52.310;7.230;2023-12-20T17:20:51;11.03;;;9.93;;
7729;SDS011;3908;52.310;7.230;2023-12-20T17:23:38;11.33;;;9.73;;
7729;SDS011;3908;52.310;7.230;2023-12-20T17:26:43;11.90;;;10.70;;
7729;SDS011;3908;52.310;7.230;2023-12-20T17:29:35;16.53;;;10.10;;
7729;SDS011;3908;52.310;7.230;2023-12-20T17:32:25;12.90;;;11.80;;
7729;SDS011;3908;52.310;7.230;2023-12-20T17:35:32;16.03;;;14.43;;
7729;SDS011;3908;52.310;7.230;2023-12-20T17:38:45;18.83;;;14.60;;
7729;SDS011;3908;52.310;7.230;2023-12-20T17:41:32;17.47;;;15.07;;
7729;SDS011;3908;52.310;7.230;2023-12-20T17:44:21;32.03;;;20.33;;
7729;SDS011;3908;52.310;7.230;2023-12-20T17:47:09;23.23;;;18.23;;
7729;SDS011;3908;52.310;7.230;2023-12-20T17:49:56;25.07;;;18.03;;
7729;SDS011;3908;52.310;7.230;2023-12-20T17:52:43;21.67;;;19.77;;
7729;SDS011;3908;52.310;7.230;2023-12-20T17:55:30;22.50;;;20.30;;
7729;SDS011;3908;52.310;7.230;2023-12-20T17:58:20;25.00;;;22.17;;
7729;SDS011;3908;52.310;7.230;2023-12-20T18:01:10;21.77;;;19.80;;
7729;SDS011;3908;52.310;7.230;2023-12-20T18:07:08;20.77;;;18.43;;
7729;SDS011;3908;52.310;7.230;2023-12-20T18:09:57;26.10;;;23.03;;
7729;SDS011;3908;52.310;7.230;2023-12-20T18:12:45;22.97;;;21.17;;
7729;SDS011;3908;52.310;7.230;2023-12-20T18:23:20;22.43;;;20.37;;
7729;SDS011;3908;52.310;7.230;2023-12-20T19:25:48;21.50;;;19.60;;
7729;SDS011;3908;52.310;7.230;2023-12-20T19:39:01;22.73;;;21.00;;
7729;SDS011;3908;52.310;7.230;2023-12-20T19:41:50;20.90;;;18.93;;
7729;SDS011;3908;52.310;7.230;2023-12-20T19:44:37;20.90;;;19.30;;
7729;SDS011;3908;52.310;7.230;2023-12-20T19:47:24;19.70;;;18.00;;
7729;SDS011;3908;52.310;7.230;2023-12-20T19:50:10;21.87;;;20.23;;
7729;SDS011;3908;52.310;7.230;2023-12-20T19:52:57;18.23;;;16.87;;
7729;SDS011;3908;52.310;7.230;2023-12-20T19:55:45;19.97;;;18.50;;
7729;SDS011;3908;52.310;7.230;2023-12-20T19:58:43;19.60;;;17.97;;
7729;SDS011;3908;52.310;7.230;2023-12-20T20:01:31;19.20;;;17.60;;
7729;SDS011;3908;52.310;7.230;2023-12-20T20:04:20;21.03;;;19.27;;
7729;SDS011;3908;52.310;7.230;2023-12-20T20:09:42;21.03;;;19.53;;
7729;SDS011;3908;52.310;7.230;2023-12-20T20:12:30;21.60;;;20.13;;
7729;SDS011;3908;52.310;7.230;2023-12-20T20:15:19;24.17;;;22.30;;
7729;SDS011;3908;52.310;7.230;2023-12-20T20:18:06;26.63;;;24.60;;
7729;SDS011;3908;52.310;7.230;2023-12-20T20:20:55;24.27;;;22.73;;
7729;SDS011;3908;52.310;7.230;2023-12-20T20:23:42;25.40;;;23.53;;
7729;SDS011;3908;52.310;7.230;2023-12-20T20:26:29;26.00;;;24.10;;
7729;SDS011;3908;52.310;7.230;2023-12-20T20:29:16;24.83;;;23.13;;
7729;SDS011;3908;52.310;7.230;2023-12-20T20:32:06;30.33;;;28.00;;
7729;SDS011;3908;52.310;7.230;2023-12-20T20:34:53;25.90;;;24.20;;
7729;SDS011;3908;52.310;7.230;2023-12-20T20:37:40;27.47;;;25.60;;
7729;SDS011;3908;52.310;7.230;2023-12-20T20:40:27;26.50;;;24.80;;
7729;SDS011;3908;52.310;7.230;2023-12-20T20:43:14;30.30;;;28.40;;
7729;SDS011;3908;52.310;7.230;2023-12-20T20:46:01;28.87;;;26.97;;
7729;SDS011;3908;52.310;7.230;2023-12-20T20:48:50;29.10;;;27.23;;
7729;SDS011;3908;52.310;7.230;2023-12-20T20:51:37;28.23;;;26.37;;
7729;SDS011;3908;52.310;7.230;2023-12-20T20:54:23;29.33;;;27.43;;
7729;SDS011;3908;52.310;7.230;2023-12-20T20:57:10;30.83;;;28.83;;
7729;SDS011;3908;52.310;7.230;2023-12-20T20:59:57;28.97;;;27.03;;
7729;SDS011;3908;52.310;7.230;2023-12-20T21:02:44;27.13;;;25.20;;
7729;SDS011;3908;52.310;7.230;2023-12-20T21:05:32;29.70;;;27.77;;
7729;SDS011;3908;52.310;7.230;2023-12-20T21:08:19;25.30;;;23.80;;
7729;SDS011;3908;52.310;7.230;2023-12-20T21:11:07;30.53;;;28.83;;
7729;SDS011;3908;52.310;7.230;2023-12-20T21:13:53;29.70;;;28.07;;
7729;SDS011;3908;52.310;7.230;2023-12-20T21:16:40;29.47;;;27.80;;
7729;SDS011;3908;52.310;7.230;2023-12-20T21:19:27;26.40;;;24.83;;
7729;SDS011;3908;52.310;7.230;2023-12-20T21:22:15;28.17;;;25.97;;
7729;SDS011;3908;52.310;7.230;2023-12-20T21:25:03;28.50;;;26.63;;
7729;SDS011;3908;52.310;7.230;2023-12-20T21:27:50;24.87;;;23.20;;
7729;SDS011;3908;52.310;7.230;2023-12-20T21:30:37;25.57;;;24.00;;
7729;SDS011;3908;52.310;7.230;2023-12-20T21:33:24;22.70;;;21.30;;
7729;SDS011;3908;52.310;7.230;2023-12-20T21:36:11;24.60;;;23.17;;
7729;SDS011;3908;52.310;7.230;2023-12-20T21:39:03;24.03;;;22.30;;